sensor_id;sensor_type;location;lat;lon;timestamp;pressure;altitude;pressure_sealevel;temperature;humidity
58919;BME280;44704;50.122;19.932;2022-09-01T00:02:25;98741.19;;;14.07;70.88
58919;BME280;44704;50.122;19.932;2022-09-01T00:04:55;98738.65;;;14.04;70.90
58919;BME280;44704;50.122;19.932;2022-09-01T00:07:28;98734.59;;;14.02;70.99
58919;BME280;44704;50.122;19.932;2022-09-01T00:10:04;98732.13;;;14.02;71.07
58919;BME280;44704;50.122;19.932;2022-09-01T00:12:36;98732.84;;;14.03;71.11
58919;BME280;44704;50.122;19.932;2022-09-01T00:15:07;98733.41;;;14.05;71.06
58919;BME280;44704;50.122;19.932;2022-09-01T00:17:35;98730.94;;;14.05;71.08
58919;BME280;44704;50.122;19.932;2022-09-01T00:20:03;98730.55;;;14.06;71.06
58919;BME280;44704;50.122;19.932;2022-09-01T00:22:30;98728.02;;;14.03;71.13
58919;BME280;44704;50.122;19.932;2022-09-01T00:24:59;98728.16;;;14.00;71.01
58919;BME280;44704;50.122;19.932;2022-09-01T00:27:27;98728.95;;;13.98;71.24
58919;BME280;44704;50.122;19.932;2022-09-01T00:29:54;98724.00;;;13.95;71.14
58919;BME280;44704;50.122;19.932;2022-09-01T00:32:22;98726.38;;;13.91;71.24
58919;BME280;44704;50.122;19.932;2022-09-01T00:34:52;98726.85;;;13.88;71.37
58919;BME280;44704;50.122;19.932;2022-09-01T00:37:19;98731.27;;;13.86;71.53
58919;BME280;44704;50.122;19.932;2022-09-01T00:39:46;98729.93;;;13.84;71.44
58919;BME280;44704;50.122;19.932;2022-09-01T00:42:13;98727.89;;;13.81;71.49
58919;BME280;44704;50.122;19.932;2022-09-01T00:44:39;98724.52;;;13.78;71.68
58919;BME280;44704;50.122;19.932;2022-09-01T00:47:06;98726.02;;;13.75;71.83
58919;BME280;44704;50.122;19.932;2022-09-01T00:49:40;98722.23;;;13.73;71.87
58919;BME280;44704;50.122;19.932;2022-09-01T00:52:14;98725.79;;;13.69;71.76
58919;BME280;44704;50.122;19.932;2022-09-01T00:54:48;98721.84;;;13.66;71.84
58919;BME280;44704;50.122;19.932;2022-09-01T00:57:16;98720.89;;;13.65;72.06
58919;BME280;44704;50.122;19.932;2022-09-01T00:59:58;98718.32;;;13.66;72.15
58919;BME280;44704;50.122;19.932;2022-09-01T01:02:26;98719.66;;;13.63;72.00
58919;BME280;44704;50.122;19.932;2022-09-01T01:04:53;98722.27;;;13.62;72.26
58919;BME280;44704;50.122;19.932;2022-09-01T01:07:26;98718.26;;;13.60;72.07
58919;BME280;44704;50.122;19.932;2022-09-01T01:09:54;98722.06;;;13.58;72.12
58919;BME280;44704;50.122;19.932;2022-09-01T01:12:21;98726.20;;;13.55;72.44
58919;BME280;44704;50.122;19.932;2022-09-01T01:14:54;98726.17;;;13.53;72.31
58919;BME280;44704;50.122;19.932;2022-09-01T01:17:22;98724.54;;;13.53;72.39
58919;BME280;44704;50.122;19.932;2022-09-01T01:19:56;98727.34;;;13.55;72.39
58919;BME280;44704;50.122;19.932;2022-09-01T01:25:47;98730.27;;;13.53;72.27
58919;BME280;44704;50.122;19.932;2022-09-01T01:30:54;98725.29;;;13.41;72.39
58919;BME280;44704;50.122;19.932;2022-09-01T01:33:25;98725.56;;;13.36;72.59
58919;BME280;44704;50.122;19.932;2022-09-01T01:35:53;98728.95;;;13.35;72.79
58919;BME280;44704;50.122;19.932;2022-09-01T01:38:28;98728.56;;;13.36;72.90
58919;BME280;44704;50.122;19.932;2022-09-01T01:40:58;98726.16;;;13.36;72.73
58919;BME280;44704;50.122;19.932;2022-09-01T01:43:27;98723.96;;;13.34;72.87
58919;BME280;44704;50.122;19.932;2022-09-01T01:45:56;98724.46;;;13.31;72.62
58919;BME280;44704;50.122;19.932;2022-09-01T01:48:37;98720.33;;;13.26;72.85
58919;BME280;44704;50.122;19.932;2022-09-01T01:51:05;98717.88;;;13.26;72.93
58919;BME280;44704;50.122;19.932;2022-09-01T01:53:33;98720.60;;;13.26;72.93
58919;BME280;44704;50.122;19.932;2022-09-01T01:56:03;98717.66;;;13.22;73.11
58919;BME280;44704;50.122;19.932;2022-09-01T01:58:33;98716.95;;;13.21;73.27
58919;BME280;44704;50.122;19.932;2022-09-01T02:01:06;98720.00;;;13.22;73.40
58919;BME280;44704;50.122;19.932;2022-09-01T02:03:36;98722.76;;;13.18;73.17
58919;BME280;44704;50.122;19.932;2022-09-01T02:06:09;98719.65;;;13.14;73.30
58919;BME280;44704;50.122;19.932;2022-09-01T02:08:38;98723.81;;;13.09;73.33
58919;BME280;44704;50.122;19.932;2022-09-01T02:11:07;98722.77;;;13.06;73.65
58919;BME280;44704;50.122;19.932;2022-09-01T02:13:34;98721.54;;;13.03;73.74
58919;BME280;44704;50.122;19.932;2022-09-01T02:16:06;98723.00;;;13.02;73.94
58919;BME280;44704;50.122;19.932;2022-09-01T02:18:36;98722.91;;;13.04;73.67
58919;BME280;44704;50.122;19.932;2022-09-01T02:21:10;98726.90;;;13.00;73.61
58919;BME280;44704;50.122;19.932;2022-09-01T02:23:40;98726.64;;;12.96;74.00
58919;BME280;44704;50.122;19.932;2022-09-01T02:26:09;98723.91;;;12.96;74.20
58919;BME280;44704;50.122;19.932;2022-09-01T02:28:37;98721.73;;;12.96;74.27
58919;BME280;44704;50.122;19.932;2022-09-01T02:31:10;98723.91;;;12.96;74.56
58919;BME280;44704;50.122;19.932;2022-09-01T02:33:37;98728.75;;;12.99;74.48
58919;BME280;44704;50.122;19.932;2022-09-01T02:36:10;98724.20;;;13.01;74.43
58919;BME280;44704;50.122;19.932;2022-09-01T02:38:40;98726.12;;;13.02;74.54
58919;BME280;44704;50.122;19.932;2022-09-01T02:41:11;98726.85;;;13.01;74.21
58919;BME280;44704;50.122;19.932;2022-09-01T02:43:40;98730.80;;;13.01;74.36
58919;BME280;44704;50.122;19.932;2022-09-01T02:46:09;98729.27;;;13.01;74.41
58919;BME280;44704;50.122;19.932;2022-09-01T02:48:44;98728.84;;;13.01;74.62
58919;BME280;44704;50.122;19.932;2022-09-01T02:51:15;98726.71;;;13.02;74.39
58919;BME280;44704;50.122;19.932;2022-09-01T02:53:43;98731.91;;;13.03;74.44
58919;BME280;44704;50.122;19.932;2022-09-01T02:56:16;98726.95;;;13.03;74.68
58919;BME280;44704;50.122;19.932;2022-09-01T02:58:45;98727.22;;;13.02;74.83
58919;BME280;44704;50.122;19.932;2022-09-01T03:01:25;98723.00;;;13.02;74.70
58919;BME280;44704;50.122;19.932;2022-09-01T03:03:55;98723.65;;;13.02;74.70
58919;BME280;44704;50.122;19.932;2022-09-01T03:06:24;98719.13;;;13.03;74.98
58919;BME280;44704;50.122;19.932;2022-09-01T03:08:56;98718.26;;;13.04;74.66
58919;BME280;44704;50.122;19.932;2022-09-01T03:11:29;98713.29;;;13.04;74.87
58919;BME280;44704;50.122;19.932;2022-09-01T03:13:57;98708.46;;;13.03;74.92
58919;BME280;44704;50.122;19.932;2022-09-01T03:16:24;98709.73;;;13.03;75.01
58919;BME280;44704;50.122;19.932;2022-09-01T03:18:52;98711.95;;;13.02;74.92
58919;BME280;44704;50.122;19.932;2022-09-01T03:21:19;98716.23;;;13.03;75.24
58919;BME280;44704;50.122;19.932;2022-09-01T03:23:48;98715.89;;;13.02;75.30
58919;BME280;44704;50.122;19.932;2022-09-01T03:26:15;98723.88;;;13.03;75.24
58919;BME280;44704;50.122;19.932;2022-09-01T03:28:46;98722.56;;;13.02;75.27
58919;BME280;44704;50.122;19.932;2022-09-01T03:31:14;98723.70;;;13.02;75.46
58919;BME280;44704;50.122;19.932;2022-09-01T03:33:41;98722.00;;;13.01;75.29
58919;BME280;44704;50.122;19.932;2022-09-01T03:36:12;98724.40;;;13.01;75.31
58919;BME280;44704;50.122;19.932;2022-09-01T03:38:49;98722.58;;;12.99;75.23
58919;BME280;44704;50.122;19.932;2022-09-01T03:41:23;98726.30;;;12.99;75.17
58919;BME280;44704;50.122;19.932;2022-09-01T03:43:51;98728.70;;;12.99;75.00
58919;BME280;44704;50.122;19.932;2022-09-01T03:46:27;98723.89;;;12.98;74.98
58919;BME280;44704;50.122;19.932;2022-09-01T03:48:59;98722.23;;;12.97;75.09
58919;BME280;44704;50.122;19.932;2022-09-01T03:51:32;98720.59;;;12.94;75.26
58919;BME280;44704;50.122;19.932;2022-09-01T03:54:03;98727.06;;;12.91;75.16
58919;BME280;44704;50.122;19.932;2022-09-01T03:56:30;98732.52;;;12.89;75.09
58919;BME280;44704;50.122;19.932;2022-09-01T03:58:58;98730.63;;;12.87;75.42
58919;BME280;44704;50.122;19.932;2022-09-01T04:01:28;98729.25;;;12.87;75.35
58919;BME280;44704;50.122;19.932;2022-09-01T04:03:58;98727.07;;;12.87;75.35
58919;BME280;44704;50.122;19.932;2022-09-01T04:06:30;98730.60;;;12.85;75.61
58919;BME280;44704;50.122;19.932;2022-09-01T04:08:57;98729.48;;;12.83;75.48
58919;BME280;44704;50.122;19.932;2022-09-01T04:11:31;98734.36;;;12.81;75.37
58919;BME280;44704;50.122;19.932;2022-09-01T04:13:59;98737.48;;;12.81;75.65
58919;BME280;44704;50.122;19.932;2022-09-01T04:16:30;98739.14;;;12.82;75.60
58919;BME280;44704;50.122;19.932;2022-09-01T04:19:22;98737.89;;;12.82;75.64
58919;BME280;44704;50.122;19.932;2022-09-01T04:21:58;98739.45;;;12.80;75.55
58919;BME280;44704;50.122;19.932;2022-09-01T04:24:32;98737.70;;;12.80;75.65
58919;BME280;44704;50.122;19.932;2022-09-01T04:27:02;98734.55;;;12.79;75.62
58919;BME280;44704;50.122;19.932;2022-09-01T04:29:30;98733.16;;;12.76;75.34
58919;BME280;44704;50.122;19.932;2022-09-01T04:32:03;98734.91;;;12.72;75.61
58919;BME280;44704;50.122;19.932;2022-09-01T04:34:35;98735.55;;;12.70;75.31
58919;BME280;44704;50.122;19.932;2022-09-01T04:39:34;98737.21;;;12.69;75.88
58919;BME280;44704;50.122;19.932;2022-09-01T04:42:02;98737.10;;;12.72;75.88
58919;BME280;44704;50.122;19.932;2022-09-01T04:44:34;98739.36;;;12.69;75.79
58919;BME280;44704;50.122;19.932;2022-09-01T04:47:03;98744.91;;;12.68;75.98
58919;BME280;44704;50.122;19.932;2022-09-01T04:49:36;98747.52;;;12.71;76.12
58919;BME280;44704;50.122;19.932;2022-09-01T04:52:03;98749.42;;;12.74;76.11
58919;BME280;44704;50.122;19.932;2022-09-01T04:54:30;98750.70;;;12.79;76.27
58919;BME280;44704;50.122;19.932;2022-09-01T04:56:59;98752.14;;;12.81;75.95
58919;BME280;44704;50.122;19.932;2022-09-01T04:59:28;98747.00;;;12.81;76.01
58919;BME280;44704;50.122;19.932;2022-09-01T05:01:59;98747.89;;;12.81;76.00
58919;BME280;44704;50.122;19.932;2022-09-01T05:04:30;98742.46;;;12.81;75.92
58919;BME280;44704;50.122;19.932;2022-09-01T05:07:02;98743.69;;;12.79;75.58
58919;BME280;44704;50.122;19.932;2022-09-01T05:09:35;98747.14;;;12.76;75.82
58919;BME280;44704;50.122;19.932;2022-09-01T05:12:14;98747.29;;;12.73;76.20
58919;BME280;44704;50.122;19.932;2022-09-01T05:14:46;98745.52;;;12.72;76.06
58919;BME280;44704;50.122;19.932;2022-09-01T05:17:16;98747.65;;;12.72;76.06
58919;BME280;44704;50.122;19.932;2022-09-01T05:19:47;98743.84;;;12.73;76.19
58919;BME280;44704;50.122;19.932;2022-09-01T05:22:17;98744.21;;;12.78;76.29
58919;BME280;44704;50.122;19.932;2022-09-01T05:24:58;98740.15;;;12.84;76.43
58919;BME280;44704;50.122;19.932;2022-09-01T05:27:30;98737.42;;;12.88;76.19
58919;BME280;44704;50.122;19.932;2022-09-01T05:29:57;98736.75;;;12.96;76.03
58919;BME280;44704;50.122;19.932;2022-09-01T05:32:27;98737.23;;;13.04;76.33
58919;BME280;44704;50.122;19.932;2022-09-01T05:34:54;98738.23;;;13.08;75.66
58919;BME280;44704;50.122;19.932;2022-09-01T05:37:22;98737.33;;;13.10;75.51
58919;BME280;44704;50.122;19.932;2022-09-01T05:39:49;98736.24;;;13.16;75.73
58919;BME280;44704;50.122;19.932;2022-09-01T05:42:17;98739.20;;;13.26;75.56
58919;BME280;44704;50.122;19.932;2022-09-01T05:44:44;98737.45;;;13.33;75.38
58919;BME280;44704;50.122;19.932;2022-09-01T05:47:15;98740.06;;;13.45;75.53
58919;BME280;44704;50.122;19.932;2022-09-01T05:49:42;98736.84;;;13.52;74.64
58919;BME280;44704;50.122;19.932;2022-09-01T05:52:10;98739.52;;;13.57;74.48
58919;BME280;44704;50.122;19.932;2022-09-01T05:54:37;98744.67;;;13.62;75.73
58919;BME280;44704;50.122;19.932;2022-09-01T05:57:04;98747.39;;;13.88;76.40
58919;BME280;44704;50.122;19.932;2022-09-01T05:59:32;98744.73;;;14.18;75.19
58919;BME280;44704;50.122;19.932;2022-09-01T06:02:15;98745.48;;;14.37;73.80
58919;BME280;44704;50.122;19.932;2022-09-01T06:04:44;98748.51;;;14.45;73.19
58919;BME280;44704;50.122;19.932;2022-09-01T06:07:17;98748.52;;;14.55;73.23
58919;BME280;44704;50.122;19.932;2022-09-01T06:09:48;98745.38;;;14.65;73.07
58919;BME280;44704;50.122;19.932;2022-09-01T06:12:18;98744.50;;;14.73;72.95
58919;BME280;44704;50.122;19.932;2022-09-01T06:14:51;98743.02;;;14.82;72.79
58919;BME280;44704;50.122;19.932;2022-09-01T06:17:22;98746.86;;;14.85;71.87
58919;BME280;44704;50.122;19.932;2022-09-01T06:19:54;98749.48;;;14.90;71.61
58919;BME280;44704;50.122;19.932;2022-09-01T06:22:25;98755.97;;;14.95;71.26
58919;BME280;44704;50.122;19.932;2022-09-01T06:24:52;98756.31;;;14.98;70.91
58919;BME280;44704;50.122;19.932;2022-09-01T06:27:20;98760.56;;;15.03;70.43
58919;BME280;44704;50.122;19.932;2022-09-01T06:29:48;98760.30;;;15.06;70.43
58919;BME280;44704;50.122;19.932;2022-09-01T06:32:19;98763.29;;;15.09;70.80
58919;BME280;44704;50.122;19.932;2022-09-01T06:34:46;98767.48;;;15.15;70.80
58919;BME280;44704;50.122;19.932;2022-09-01T06:37:17;98763.01;;;15.23;71.15
58919;BME280;44704;50.122;19.932;2022-09-01T06:39:50;98759.03;;;15.30;70.95
58919;BME280;44704;50.122;19.932;2022-09-01T06:42:17;98760.21;;;15.39;70.48
58919;BME280;44704;50.122;19.932;2022-09-01T06:44:53;98764.12;;;15.43;69.40
58919;BME280;44704;50.122;19.932;2022-09-01T06:47:20;98768.69;;;15.41;68.94
58919;BME280;44704;50.122;19.932;2022-09-01T06:49:47;98767.86;;;15.41;69.34
58919;BME280;44704;50.122;19.932;2022-09-01T06:52:18;98767.52;;;15.43;69.40
58919;BME280;44704;50.122;19.932;2022-09-01T06:54:46;98765.77;;;15.46;70.38
58919;BME280;44704;50.122;19.932;2022-09-01T06:57:14;98773.16;;;15.54;70.28
58919;BME280;44704;50.122;19.932;2022-09-01T06:59:42;98771.27;;;15.61;69.84
58919;BME280;44704;50.122;19.932;2022-09-01T07:02:09;98779.73;;;15.69;69.66
58919;BME280;44704;50.122;19.932;2022-09-01T07:05:05;98778.80;;;15.78;69.02
58919;BME280;44704;50.122;19.932;2022-09-01T07:07:34;98781.45;;;15.83;69.12
58919;BME280;44704;50.122;19.932;2022-09-01T07:10:26;98782.89;;;15.89;68.69
58919;BME280;44704;50.122;19.932;2022-09-01T07:12:59;98784.27;;;15.90;67.92
58919;BME280;44704;50.122;19.932;2022-09-01T07:15:28;98779.73;;;15.92;67.32
58919;BME280;44704;50.122;19.932;2022-09-01T07:17:56;98778.67;;;15.95;67.72
58919;BME280;44704;50.122;19.932;2022-09-01T07:20:26;98781.21;;;16.01;67.15
58919;BME280;44704;50.122;19.932;2022-09-01T07:22:56;98783.14;;;16.06;67.32
58919;BME280;44704;50.122;19.932;2022-09-01T07:25:23;98786.61;;;16.15;67.50
58919;BME280;44704;50.122;19.932;2022-09-01T07:28:07;98785.19;;;16.21;66.85
58919;BME280;44704;50.122;19.932;2022-09-01T07:30:41;98786.84;;;16.26;66.51
58919;BME280;44704;50.122;19.932;2022-09-01T07:33:09;98784.92;;;16.31;66.31
58919;BME280;44704;50.122;19.932;2022-09-01T07:35:39;98787.28;;;16.34;65.91
58919;BME280;44704;50.122;19.932;2022-09-01T07:38:08;98787.55;;;16.40;65.70
58919;BME280;44704;50.122;19.932;2022-09-01T07:40:36;98792.60;;;16.52;66.19
58919;BME280;44704;50.122;19.932;2022-09-01T07:43:20;98791.45;;;16.63;66.11
58919;BME280;44704;50.122;19.932;2022-09-01T07:46:09;98790.82;;;16.73;65.44
58919;BME280;44704;50.122;19.932;2022-09-01T07:48:38;98790.23;;;16.77;65.24
58919;BME280;44704;50.122;19.932;2022-09-01T07:51:05;98787.95;;;16.81;65.31
58919;BME280;44704;50.122;19.932;2022-09-01T07:53:33;98783.27;;;16.81;64.94
58919;BME280;44704;50.122;19.932;2022-09-01T07:56:07;98780.27;;;16.80;64.42
58919;BME280;44704;50.122;19.932;2022-09-01T07:58:38;98780.98;;;16.84;64.73
58919;BME280;44704;50.122;19.932;2022-09-01T08:01:09;98782.24;;;16.88;63.98
58919;BME280;44704;50.122;19.932;2022-09-01T08:03:40;98774.31;;;16.91;63.74
58919;BME280;44704;50.122;19.932;2022-09-01T08:06:09;98771.61;;;16.94;64.00
58919;BME280;44704;50.122;19.932;2022-09-01T08:08:38;98772.20;;;17.01;64.23
58919;BME280;44704;50.122;19.932;2022-09-01T08:11:07;98771.08;;;17.09;64.04
58919;BME280;44704;50.122;19.932;2022-09-01T08:13:36;98771.33;;;17.18;63.30
58919;BME280;44704;50.122;19.932;2022-09-01T08:16:07;98769.09;;;17.27;62.91
58919;BME280;44704;50.122;19.932;2022-09-01T08:18:35;98767.41;;;17.34;62.27
58919;BME280;44704;50.122;19.932;2022-09-01T08:21:12;98771.55;;;17.43;62.61
58919;BME280;44704;50.122;19.932;2022-09-01T08:24:06;98773.48;;;17.55;62.61
58919;BME280;44704;50.122;19.932;2022-09-01T08:26:35;98768.67;;;17.65;61.68
58919;BME280;44704;50.122;19.932;2022-09-01T08:29:03;98768.81;;;17.72;61.18
58919;BME280;44704;50.122;19.932;2022-09-01T08:31:35;98768.52;;;17.76;60.50
58919;BME280;44704;50.122;19.932;2022-09-01T08:34:03;98764.07;;;17.74;58.52
58919;BME280;44704;50.122;19.932;2022-09-01T08:36:33;98763.92;;;17.71;59.13
58919;BME280;44704;50.122;19.932;2022-09-01T08:39:00;98762.73;;;17.67;59.21
58919;BME280;44704;50.122;19.932;2022-09-01T08:41:58;98761.88;;;17.71;59.05
58919;BME280;44704;50.122;19.932;2022-09-01T08:44:35;98763.68;;;17.73;58.32
58919;BME280;44704;50.122;19.932;2022-09-01T08:47:10;98761.33;;;17.79;57.96
58919;BME280;44704;50.122;19.932;2022-09-01T08:49:38;98760.98;;;17.73;57.61
58919;BME280;44704;50.122;19.932;2022-09-01T08:54:54;98759.77;;;17.83;58.27
58919;BME280;44704;50.122;19.932;2022-09-01T08:57:34;98763.13;;;17.97;57.12
58919;BME280;44704;50.122;19.932;2022-09-01T09:00:24;98765.45;;;17.95;56.75
58919;BME280;44704;50.122;19.932;2022-09-01T09:03:16;98764.27;;;18.08;57.07
58919;BME280;44704;50.122;19.932;2022-09-01T09:14:04;98754.34;;;19.00;56.13
58919;BME280;44704;50.122;19.932;2022-09-01T09:16:40;98758.46;;;19.21;54.41
58919;BME280;44704;50.122;19.932;2022-09-01T09:19:31;98752.33;;;19.38;53.14
58919;BME280;44704;50.122;19.932;2022-09-01T09:22:03;98753.01;;;19.54;52.14
58919;BME280;44704;50.122;19.932;2022-09-01T09:24:45;98749.83;;;19.65;51.43
58919;BME280;44704;50.122;19.932;2022-09-01T09:29:44;98746.58;;;19.77;50.50
58919;BME280;44704;50.122;19.932;2022-09-01T09:32:11;98747.70;;;19.70;50.06
58919;BME280;44704;50.122;19.932;2022-09-01T09:34:40;98747.96;;;19.77;49.79
58919;BME280;44704;50.122;19.932;2022-09-01T09:37:28;98750.10;;;19.73;48.71
58919;BME280;44704;50.122;19.932;2022-09-01T09:42:33;98749.82;;;19.74;47.99
58919;BME280;44704;50.122;19.932;2022-09-01T09:45:01;98748.35;;;19.77;47.85
58919;BME280;44704;50.122;19.932;2022-09-01T09:47:37;98751.58;;;19.69;48.50
58919;BME280;44704;50.122;19.932;2022-09-01T09:50:12;98749.77;;;19.58;48.92
58919;BME280;44704;50.122;19.932;2022-09-01T09:52:40;98751.37;;;19.70;49.04
58919;BME280;44704;50.122;19.932;2022-09-01T09:55:29;98750.83;;;19.86;48.93
58919;BME280;44704;50.122;19.932;2022-09-01T09:58:00;98747.44;;;20.09;48.26
58919;BME280;44704;50.122;19.932;2022-09-01T10:00:34;98748.23;;;20.38;48.75
58919;BME280;44704;50.122;19.932;2022-09-01T10:03:05;98750.75;;;20.60;46.63
58919;BME280;44704;50.122;19.932;2022-09-01T10:05:35;98749.52;;;20.73;45.09
58919;BME280;44704;50.122;19.932;2022-09-01T10:08:06;98749.63;;;20.79;44.59
58919;BME280;44704;50.122;19.932;2022-09-01T10:10:44;98746.84;;;20.93;44.93
58919;BME280;44704;50.122;19.932;2022-09-01T10:13:19;98746.26;;;21.11;45.18
58919;BME280;44704;50.122;19.932;2022-09-01T10:15:52;98740.55;;;21.28;43.74
58919;BME280;44704;50.122;19.932;2022-09-01T10:18:25;98739.04;;;21.33;43.66
58919;BME280;44704;50.122;19.932;2022-09-01T10:21:12;98735.93;;;21.39;43.67
58919;BME280;44704;50.122;19.932;2022-09-01T10:23:41;98737.66;;;21.51;43.85
58919;BME280;44704;50.122;19.932;2022-09-01T10:26:23;98737.48;;;21.56;42.67
58919;BME280;44704;50.122;19.932;2022-09-01T10:29:19;98736.40;;;21.47;42.48
58919;BME280;44704;50.122;19.932;2022-09-01T10:31:47;98735.56;;;21.47;43.47
58919;BME280;44704;50.122;19.932;2022-09-01T10:34:16;98732.55;;;21.56;43.60
58919;BME280;44704;50.122;19.932;2022-09-01T10:36:46;98733.18;;;21.63;44.01
58919;BME280;44704;50.122;19.932;2022-09-01T10:39:17;98735.71;;;21.58;43.81
58919;BME280;44704;50.122;19.932;2022-09-01T10:44:20;98734.40;;;21.65;42.54
58919;BME280;44704;50.122;19.932;2022-09-01T10:46:48;98727.55;;;21.71;43.14
58919;BME280;44704;50.122;19.932;2022-09-01T10:49:20;98721.14;;;21.77;43.77
58919;BME280;44704;50.122;19.932;2022-09-01T10:51:48;98725.34;;;21.86;43.70
58919;BME280;44704;50.122;19.932;2022-09-01T10:57:18;98722.56;;;21.99;41.53
58919;BME280;44704;50.122;19.932;2022-09-01T10:59:51;98724.92;;;22.04;41.33
58919;BME280;44704;50.122;19.932;2022-09-01T11:02:20;98725.56;;;22.09;42.18
58919;BME280;44704;50.122;19.932;2022-09-01T11:15:50;98722.95;;;21.86;40.20
58919;BME280;44704;50.122;19.932;2022-09-01T11:18:27;98720.02;;;21.95;39.36
58919;BME280;44704;50.122;19.932;2022-09-01T11:21:22;98716.29;;;22.05;40.18
58919;BME280;44704;50.122;19.932;2022-09-01T11:23:50;98717.89;;;22.23;39.26
58919;BME280;44704;50.122;19.932;2022-09-01T11:26:47;98716.19;;;22.37;38.48
58919;BME280;44704;50.122;19.932;2022-09-01T11:32:37;98714.66;;;22.35;37.30
58919;BME280;44704;50.122;19.932;2022-09-01T11:35:06;98716.08;;;22.41;36.82
58919;BME280;44704;50.122;19.932;2022-09-01T11:37:39;98709.70;;;22.41;36.75
58919;BME280;44704;50.122;19.932;2022-09-01T11:40:07;98710.27;;;22.50;37.48
58919;BME280;44704;50.122;19.932;2022-09-01T11:42:41;98706.45;;;22.62;36.97
58919;BME280;44704;50.122;19.932;2022-09-01T11:45:18;98703.62;;;22.69;36.78
58919;BME280;44704;50.122;19.932;2022-09-01T11:47:50;98706.68;;;22.81;36.78
58919;BME280;44704;50.122;19.932;2022-09-01T11:50:29;98701.23;;;22.93;36.23
58919;BME280;44704;50.122;19.932;2022-09-01T11:52:58;98700.56;;;23.04;35.43
58919;BME280;44704;50.122;19.932;2022-09-01T11:55:31;98698.46;;;23.03;35.38
58919;BME280;44704;50.122;19.932;2022-09-01T11:57:59;98700.27;;;23.07;35.86
58919;BME280;44704;50.122;19.932;2022-09-01T12:00:31;98696.39;;;23.22;35.58
58919;BME280;44704;50.122;19.932;2022-09-01T12:02:59;98697.08;;;23.33;35.30
58919;BME280;44704;50.122;19.932;2022-09-01T12:05:30;98699.80;;;23.39;35.50
58919;BME280;44704;50.122;19.932;2022-09-01T12:08:03;98696.61;;;23.26;34.89
58919;BME280;44704;50.122;19.932;2022-09-01T12:10:34;98695.94;;;23.21;35.15
58919;BME280;44704;50.122;19.932;2022-09-01T12:13:05;98692.16;;;23.28;35.09
58919;BME280;44704;50.122;19.932;2022-09-01T12:15:34;98694.91;;;23.31;34.49
58919;BME280;44704;50.122;19.932;2022-09-01T12:20:40;98692.27;;;23.37;34.35
58919;BME280;44704;50.122;19.932;2022-09-01T12:23:24;98688.54;;;23.34;33.93
58919;BME280;44704;50.122;19.932;2022-09-01T12:25:54;98687.20;;;23.39;34.15
58919;BME280;44704;50.122;19.932;2022-09-01T12:28:26;98688.52;;;23.48;34.16
58919;BME280;44704;50.122;19.932;2022-09-01T12:31:03;98687.23;;;23.60;35.20
58919;BME280;44704;50.122;19.932;2022-09-01T12:33:32;98685.08;;;23.72;33.59
58919;BME280;44704;50.122;19.932;2022-09-01T12:38:45;98684.45;;;23.29;33.71
58919;BME280;44704;50.122;19.932;2022-09-01T12:41:30;98683.44;;;23.17;34.78
58919;BME280;44704;50.122;19.932;2022-09-01T12:44:41;98680.58;;;23.38;35.63
58919;BME280;44704;50.122;19.932;2022-09-01T12:47:11;98686.34;;;23.42;35.05
58919;BME280;44704;50.122;19.932;2022-09-01T12:57:29;98687.53;;;22.65;36.08
58919;BME280;44704;50.122;19.932;2022-09-01T13:05:30;98692.45;;;21.95;36.75
58919;BME280;44704;50.122;19.932;2022-09-01T13:08:04;98691.61;;;21.69;37.08
58919;BME280;44704;50.122;19.932;2022-09-01T13:10:53;98691.95;;;21.46;38.32
58919;BME280;44704;50.122;19.932;2022-09-01T13:13:21;98688.13;;;21.33;38.82
58919;BME280;44704;50.122;19.932;2022-09-01T13:15:52;98688.88;;;21.21;38.53
58919;BME280;44704;50.122;19.932;2022-09-01T13:18:23;98691.11;;;21.18;38.26
58919;BME280;44704;50.122;19.932;2022-09-01T13:20:51;98692.69;;;21.41;39.17
58919;BME280;44704;50.122;19.932;2022-09-01T13:23:19;98691.28;;;21.74;38.17
58919;BME280;44704;50.122;19.932;2022-09-01T13:25:47;98688.38;;;22.03;36.46
58919;BME280;44704;50.122;19.932;2022-09-01T13:28:15;98684.70;;;22.28;36.24
58919;BME280;44704;50.122;19.932;2022-09-01T13:30:44;98685.48;;;22.54;36.87
58919;BME280;44704;50.122;19.932;2022-09-01T13:33:12;98682.27;;;22.64;36.08
58919;BME280;44704;50.122;19.932;2022-09-01T13:35:39;98686.48;;;22.90;35.85
58919;BME280;44704;50.122;19.932;2022-09-01T13:38:06;98680.05;;;23.16;35.29
58919;BME280;44704;50.122;19.932;2022-09-01T13:40:33;98681.27;;;23.36;34.44
58919;BME280;44704;50.122;19.932;2022-09-01T13:43:00;98683.09;;;23.38;34.34
58919;BME280;44704;50.122;19.932;2022-09-01T13:45:27;98685.99;;;23.04;34.96
58919;BME280;44704;50.122;19.932;2022-09-01T13:47:54;98687.88;;;22.68;35.43
58919;BME280;44704;50.122;19.932;2022-09-01T13:50:22;98689.67;;;22.38;36.10
58919;BME280;44704;50.122;19.932;2022-09-01T13:52:53;98692.84;;;22.17;36.17
58919;BME280;44704;50.122;19.932;2022-09-01T13:55:23;98692.19;;;21.99;36.67
58919;BME280;44704;50.122;19.932;2022-09-01T13:57:51;98691.08;;;21.81;37.17
58919;BME280;44704;50.122;19.932;2022-09-01T14:00:22;98691.02;;;21.68;37.41
58919;BME280;44704;50.122;19.932;2022-09-01T14:02:52;98689.70;;;21.73;37.31
58919;BME280;44704;50.122;19.932;2022-09-01T14:05:26;98686.63;;;21.91;36.23
58919;BME280;44704;50.122;19.932;2022-09-01T14:07:53;98686.30;;;21.91;36.23
58919;BME280;44704;50.122;19.932;2022-09-01T14:10:21;98684.48;;;21.89;37.08
58919;BME280;44704;50.122;19.932;2022-09-01T14:12:49;98687.23;;;22.08;36.46
58919;BME280;44704;50.122;19.932;2022-09-01T14:15:17;98686.23;;;22.09;36.50
58919;BME280;44704;50.122;19.932;2022-09-01T14:17:47;98690.53;;;21.90;36.86